Tucson, AZ (85745)

4:12 AM MST on August 27, 2016 (GMT -0700)
Wildcat Pass | | Change Station

Elev 2650 ft 32.20 °N, 111.04 °W | Updated 35 seconds ago

Scattered Clouds
Scattered Clouds
69.4 °F
Feels Like 69.4 °F
N
0.0
Wind Variable Wind from South
Gusts 0.0 mph

Today
High -- | Low -- °F
--% Chance of Precip.
Yesterday
High -- | Low -- °F
Precip. -- in
Pressure 29.86 in
Visibility 10.0 miles
Clouds Scattered Clouds 10000 ft
Dew Point 60 °F
Humidity 73%
Rainfall 0.00 in
Snow Depth Not available.
5:56 AM 6:53 PM
Waning Crescent, 25% visible
METAR KDMA 271058Z AUTO 13007KT 10SM SCT100 22/14 A2998 RMK AO2 SLP109 T02230142 CHINO RWY30 $
Pressure 29.86 in
Visibility 10.0 miles
Clouds Scattered Clouds 10000 ft
Dew Point 60 °F
Humidity 73%
Rainfall 0.00 in
Snow Depth Not available.
5:56 AM 6:53 PM
Waning Crescent, 25% visible
METAR KDMA 271058Z AUTO 13007KT 10SM SCT100 22/14 A2998 RMK AO2 SLP109 T02230142 CHINO RWY30 $

10-Day Weather Forecast

Almanac

Astronomy

Aug. 27, 2016 Rise Set
Actual Time
Civil Twilight
Nautical Twilight
Astronomical Twilight
Moon
Length of Visible Light
Length of Day
Tomorrow will be .
, % of the Moon is Illuminated

Today's Extremes

State Highs State Lows

Community

WunderPhotos

Upload Photos

1,935,322 photos uploaded!

WunderBlog® & News

Nearby

Air Quality

  Air Quality AQ Index Pollutant
Not available.

Snow Depth

Station Depth Elevation

Earthquake Activity

City Distance Mag. Time & Date
Minimum magnitude displayed is 2.5.

Coastal Water Temperatures

Place Temperature

Stations

Nearby Weather Stations

Station Location Temp. Windchill Dew Point Humidity Wind Precip. Elev Updated Type
                   

Watches & Warnings

There are currently no watches in effect.